Time;durP1;ratioP1;P1;durP2;ratioP2;P2;SDS_P1;SDS_P2;PMS_P1;PMS_P2;Temp;Humidity;BMP_temperature;BMP_pressure;BME280_temperature;BME280_humidity;BME280_pressure;Samples;Min_cycle;Max_cycle;Signal;HPM_P1;HPM_P2
2022/07/24 00:00:34;;;;;;;8.45;7.65;;;14.50;99.90;;;;;;6188254;23;20055;-90
2022/07/24 00:03:00;;;;;;;9.20;7.97;;;14.50;99.90;;;;;;6188297;23;20008;-89
2022/07/24 00:05:26;;;;;;;8.60;7.70;;;14.50;99.90;;;;;;6188239;23;20374;-91
2022/07/24 00:07:51;;;;;;;9.88;8.10;;;14.50;99.90;;;;;;6186644;23;20005;-90
2022/07/24 00:10:17;;;;;;;8.88;7.78;;;14.50;99.90;;;;;;6187679;23;20087;-90
2022/07/24 00:12:43;;;;;;;9.45;8.20;;;14.50;99.90;;;;;;6188254;23;20023;-90
2022/07/24 00:15:14;;;;;;;8.25;7.45;;;14.60;99.90;;;;;;6187623;23;20433;-91
2022/07/24 00:17:42;;;;;;;8.75;7.75;;;14.60;99.90;;;;;;6188474;23;20013;-91
2022/07/24 00:20:09;;;;;;;7.80;7.03;;;14.60;99.90;;;;;;6187148;23;20131;-90
2022/07/24 00:22:35;;;;;;;8.40;7.38;;;14.60;99.90;;;;;;6186513;23;20008;-90
2022/07/24 00:25:01;;;;;;;8.68;7.78;;;14.70;99.90;;;;;;6188193;23;20037;-89
2022/07/24 00:27:26;;;;;;;8.35;7.55;;;14.60;99.90;;;;;;6187598;23;20388;-90
2022/07/24 00:29:52;;;;;;;10.35;7.93;;;14.60;99.90;;;;;;6186982;23;20013;-90
2022/07/24 00:32:17;;;;;;;8.43;7.63;;;14.60;99.90;;;;;;6188160;23;20012;-88
2022/07/24 00:34:43;;;;;;;9.57;8.38;;;14.60;99.90;;;;;;6187679;23;20021;-89
2022/07/24 00:37:08;;;;;;;9.88;8.48;;;14.70;99.90;;;;;;6187592;23;20013;-90
2022/07/24 00:39:34;;;;;;;9.18;8.27;;;14.60;99.90;;;;;;6187134;23;20345;-89
2022/07/24 00:42:00;;;;;;;8.48;7.68;;;14.60;99.90;;;;;;6187396;23;20017;-89
2022/07/24 00:44:25;;;;;;;8.80;7.90;;;14.60;99.90;;;;;;6187520;23;20223;-88
2022/07/24 00:46:51;;;;;;;8.75;7.85;;;14.60;99.90;;;;;;6212224;23;20445;-89
2022/07/24 00:49:18;;;;;;;8.68;7.88;;;14.60;99.90;;;;;;6187848;23;20005;-88
2022/07/24 00:51:46;;;;;;;8.52;7.70;;;14.60;99.90;;;;;;6186385;23;20012;-87
2022/07/24 00:54:14;;;;;;;8.60;7.70;;;14.60;99.90;;;;;;6187795;23;20019;-88
2022/07/24 00:56:45;;;;;;;9.43;8.52;;;14.60;99.90;;;;;;6186689;23;20102;-88
2022/07/24 00:59:11;;;;;;;9.05;8.10;;;14.60;99.90;;;;;;6212242;23;20024;-89
2022/07/24 01:01:37;;;;;;;9.15;8.25;;;14.50;99.90;;;;;;6187240;23;20056;-88
2022/07/24 01:04:02;;;;;;;8.77;7.82;;;14.50;99.90;;;;;;6187825;23;20028;-89
2022/07/24 01:06:28;;;;;;;9.38;8.38;;;14.50;99.90;;;;;;6187550;23;20009;-89
2022/07/24 01:08:54;;;;;;;8.57;7.32;;;14.40;99.90;;;;;;6187474;23;20470;-89
2022/07/24 01:11:20;;;;;;;9.45;7.93;;;14.40;99.90;;;;;;6211933;23;20038;-88
2022/07/24 01:13:48;;;;;;;8.65;7.68;;;14.40;99.90;;;;;;6186955;23;20066;-88
2022/07/24 01:16:13;;;;;;;9.90;8.90;;;14.30;99.90;;;;;;6187746;23;20008;-89
2022/07/24 01:18:39;;;;;;;9.40;8.45;;;14.30;99.90;;;;;;6187056;23;20015;-90
2022/07/24 01:21:06;;;;;;;9.57;8.68;;;14.20;99.90;;;;;;6186399;23;20020;-89
2022/07/24 01:23:32;;;;;;;9.75;8.75;;;14.20;99.90;;;;;;6186743;23;20013;-87
2022/07/24 01:25:57;;;;;;;9.20;8.30;;;14.10;99.90;;;;;;6191551;23;20035;-87
2022/07/24 01:28:23;;;;;;;9.75;8.75;;;14.20;99.90;;;;;;6192595;23;20015;-88
2022/07/24 01:30:49;;;;;;;9.38;8.48;;;14.20;99.90;;;;;;6192268;23;20039;-89
2022/07/24 01:33:15;;;;;;;9.57;8.57;;;14.10;99.90;;;;;;6192801;23;20019;-90
2022/07/24 01:35:42;;;;;;;8.88;7.97;;;14.20;99.90;;;;;;6191477;23;20087;-89
2022/07/24 01:38:08;;;;;;;9.40;8.50;;;14.20;99.90;;;;;;6191298;23;20014;-88
2022/07/24 01:40:34;;;;;;;9.77;8.77;;;14.10;99.90;;;;;;6192032;23;20054;-88
2022/07/24 01:43:00;;;;;;;9.55;8.65;;;14.20;99.90;;;;;;6191278;23;20008;-89
2022/07/24 01:45:25;;;;;;;9.75;8.85;;;14.30;99.90;;;;;;6192632;22;20356;-90
2022/07/24 01:47:51;;;;;;;9.35;8.45;;;14.30;99.90;;;;;;6191440;23;20019;-90
2022/07/24 01:50:17;;;;;;;9.13;8.23;;;14.30;99.90;;;;;;6191819;23;20012;-91
2022/07/24 01:52:42;;;;;;;9.90;8.65;;;14.20;99.90;;;;;;6190973;23;20014;-89
2022/07/24 01:55:08;;;;;;;8.80;7.90;;;14.30;99.90;;;;;;6217115;22;20012;-89
2022/07/24 01:57:34;;;;;;;10.02;8.40;;;14.30;99.90;;;;;;6191445;23;20054;-90
2022/07/24 02:00:01;;;;;;;8.70;7.80;;;14.20;99.90;;;;;;6217649;23;20091;-89
2022/07/24 02:02:27;;;;;;;9.65;8.68;;;14.30;99.90;;;;;;6216401;23;20017;-89
2022/07/24 02:04:53;;;;;;;9.23;8.32;;;14.20;99.90;;;;;;6190926;23;20016;-88
2022/07/24 02:07:19;;;;;;;9.02;8.13;;;14.30;99.90;;;;;;6191256;23;20102;-87
2022/07/24 02:09:45;;;;;;;9.50;8.05;;;14.30;99.90;;;;;;6192464;23;20008;-88
2022/07/24 02:12:10;;;;;;;9.55;8.55;;;14.30;99.90;;;;;;6192245;23;20078;-88
2022/07/24 02:14:36;;;;;;;9.82;8.82;;;14.30;99.90;;;;;;6217135;23;20086;-87
2022/07/24 02:17:03;;;;;;;10.10;9.10;;;14.30;99.90;;;;;;6216815;23;20043;-86
2022/07/24 02:19:29;;;;;;;9.23;8.27;;;14.40;99.90;;;;;;6191203;23;20023;-86
2022/07/24 02:21:55;;;;;;;10.02;8.60;;;14.40;99.90;;;;;;6191761;23;20012;-89
2022/07/24 02:24:21;;;;;;;9.40;8.35;;;14.50;99.90;;;;;;6192021;23;20444;-89
2022/07/24 02:26:47;;;;;;;10.40;9.40;;;14.50;99.90;;;;;;6192334;23;20040;-89
2022/07/24 02:29:13;;;;;;;10.43;9.20;;;14.50;99.90;;;;;;6191019;23;20008;-89
2022/07/24 02:31:38;;;;;;;10.50;9.43;;;14.50;99.90;;;;;;6192482;23;20019;-88
2022/07/24 02:34:04;;;;;;;11.23;8.98;;;14.50;99.90;;;;;;6191586;23;20034;-89
2022/07/24 02:36:30;;;;;;;10.30;9.27;;;14.60;99.90;;;;;;6191764;23;20012;-89
2022/07/24 02:38:55;;;;;;;9.57;8.57;;;14.40;99.90;;;;;;6191089;23;20004;-88
2022/07/24 02:41:21;;;;;;;10.18;8.93;;;14.50;99.90;;;;;;6216805;23;20039;-88
2022/07/24 02:43:46;;;;;;;9.60;8.60;;;14.60;99.90;;;;;;6191705;23;20059;-89
2022/07/24 02:46:12;;;;;;;10.27;8.77;;;14.50;99.90;;;;;;6191701;23;20008;-89
2022/07/24 02:48:38;;;;;;;11.00;9.70;;;14.60;99.90;;;;;;6216797;23;20011;-89
2022/07/24 02:51:03;;;;;;;9.93;8.90;;;14.50;99.90;;;;;;6191729;23;20372;-88
2022/07/24 02:53:29;;;;;;;9.55;8.50;;;14.50;99.90;;;;;;6192126;23;20021;-88
2022/07/24 02:55:55;;;;;;;9.88;8.75;;;14.50;99.90;;;;;;6216962;23;20008;-89
2022/07/24 02:58:20;;;;;;;10.13;9.13;;;14.40;99.90;;;;;;6191276;23;20142;-89
2022/07/24 03:00:46;;;;;;;10.65;9.55;;;14.40;99.90;;;;;;6191070;23;20020;-89
2022/07/24 03:03:11;;;;;;;10.38;9.23;;;14.40;99.90;;;;;;6192472;23;20012;-88
2022/07/24 03:05:37;;;;;;;13.15;9.32;;;14.40;99.90;;;;;;6219160;23;20436;-89
2022/07/24 03:08:03;;;;;;;10.10;9.10;;;14.30;99.90;;;;;;6217671;23;20062;-89
2022/07/24 03:10:29;;;;;;;11.50;9.00;;;14.30;99.90;;;;;;6192964;23;20008;-88
2022/07/24 03:12:55;;;;;;;10.20;9.18;;;14.30;99.90;;;;;;6192270;23;20043;-89
2022/07/24 03:15:20;;;;;;;10.25;9.10;;;14.20;99.90;;;;;;6193666;22;20344;-89
2022/07/24 03:17:51;;;;;;;10.88;8.90;;;14.20;99.90;;;;;;6193217;23;20020;-88
2022/07/24 03:20:17;;;;;;;9.45;8.55;;;14.10;99.90;;;;;;6193534;23;20051;-88
2022/07/24 03:22:44;;;;;;;10.32;9.32;;;14.20;99.90;;;;;;6192921;23;20344;-88
2022/07/24 03:25:10;;;;;;;10.07;9.07;;;14.10;99.90;;;;;;6192247;22;20008;-88
2022/07/24 03:35:32;;;;;;;10.68;9.68;;;14.00;99.90;;;;;;6188127;22;20088;31
2022/07/24 03:37:57;;;;;;;10.38;9.27;;;14.00;99.90;;;;;;6158430;23;20019;-87
2022/07/24 03:40:23;;;;;;;12.13;9.18;;;14.00;99.90;;;;;;6158867;23;20345;-88
2022/07/24 03:42:49;;;;;;;11.60;9.57;;;14.00;99.90;;;;;;6158365;23;20013;-88
2022/07/24 03:45:14;;;;;;;9.90;8.60;;;14.00;99.90;;;;;;6158830;23;20063;-88
2022/07/24 03:47:40;;;;;;;12.98;9.35;;;14.10;99.90;;;;;;6185513;23;20341;-88
2022/07/24 03:50:06;;;;;;;10.98;9.55;;;14.00;99.90;;;;;;6188946;23;20019;-87
2022/07/24 03:52:33;;;;;;;9.45;8.55;;;14.00;99.90;;;;;;6187204;23;20013;-87
2022/07/24 03:54:59;;;;;;;9.68;8.68;;;14.00;99.90;;;;;;6187689;23;20467;-87
2022/07/24 03:57:24;;;;;;;9.98;8.98;;;13.90;99.90;;;;;;6187512;23;20016;-87
2022/07/24 03:59:50;;;;;;;13.55;9.00;;;13.90;99.90;;;;;;6188496;23;20016;-87
2022/07/24 04:02:15;;;;;;;10.18;9.10;;;14.00;99.90;;;;;;6187826;23;20092;-87
2022/07/24 04:04:41;;;;;;;10.30;8.65;;;14.00;99.90;;;;;;6188074;23;20016;-89
2022/07/24 04:07:07;;;;;;;9.77;8.77;;;14.00;99.90;;;;;;6187262;23;20095;-87
2022/07/24 04:09:32;;;;;;;10.43;9.30;;;14.00;99.90;;;;;;6187834;23;20009;-86
2022/07/24 04:11:59;;;;;;;10.27;9.07;;;14.00;99.90;;;;;;6187531;23;20449;-87
2022/07/24 04:14:24;;;;;;;9.90;8.90;;;14.00;99.90;;;;;;6187916;23;20012;-87
2022/07/24 04:16:50;;;;;;;10.40;9.30;;;14.00;99.90;;;;;;6188091;23;20016;-89
2022/07/24 04:19:16;;;;;;;10.63;9.18;;;14.00;99.90;;;;;;6187719;23;20019;-87
2022/07/24 04:21:42;;;;;;;10.73;9.50;;;14.10;99.90;;;;;;6186824;23;20059;-88
2022/07/24 04:24:08;;;;;;;10.73;9.68;;;14.10;99.90;;;;;;6188056;23;20012;-89
2022/07/24 04:26:33;;;;;;;11.23;10.13;;;14.10;99.90;;;;;;6187273;23;20015;-87
2022/07/24 04:28:59;;;;;;;10.80;9.68;;;14.10;99.90;;;;;;6187899;23;20463;-87
2022/07/24 04:31:25;;;;;;;10.93;9.82;;;14.10;99.90;;;;;;6187666;23;20464;-87
2022/07/24 04:33:50;;;;;;;10.57;9.43;;;14.00;99.90;;;;;;6188105;23;20103;-87
2022/07/24 04:36:16;;;;;;;9.68;8.68;;;14.10;99.90;;;;;;6188027;23;20009;-88
2022/07/24 04:38:42;;;;;;;10.32;9.23;;;14.10;99.90;;;;;;6187379;23;20082;-87
2022/07/24 04:41:07;;;;;;;10.52;9.07;;;14.20;99.90;;;;;;6187792;23;20047;-87
2022/07/24 04:43:33;;;;;;;10.65;9.55;;;14.10;99.90;;;;;;6188190;23;20012;-87
2022/07/24 04:45:59;;;;;;;12.15;10.18;;;14.30;99.90;;;;;;6187500;23;20036;-87
2022/07/24 04:48:25;;;;;;;10.38;9.35;;;14.10;99.90;;;;;;6187765;23;20437;-88
2022/07/24 04:50:51;;;;;;;11.75;10.45;;;14.20;99.90;;;;;;6187278;23;20527;-88
2022/07/24 04:53:17;;;;;;;11.05;9.95;;;14.30;99.90;;;;;;6187429;23;20008;-87
2022/07/24 04:55:43;;;;;;;11.43;9.60;;;14.40;99.90;;;;;;6187902;23;20413;-88
2022/07/24 04:58:08;;;;;;;11.93;10.73;;;14.50;99.90;;;;;;6187891;23;20059;-87
2022/07/24 05:00:34;;;;;;;12.50;10.85;;;14.70;99.90;;;;;;6186774;23;20040;-87
2022/07/24 05:02:59;;;;;;;11.27;10.07;;;14.80;99.90;;;;;;6187139;23;20023;-87
2022/07/24 05:05:25;;;;;;;11.95;10.48;;;14.80;99.90;;;;;;6187605;23;20016;-87
2022/07/24 05:07:51;;;;;;;11.23;10.13;;;14.90;99.90;;;;;;6186128;23;20016;-89
2022/07/24 05:10:17;;;;;;;11.63;10.52;;;15.00;99.90;;;;;;6187910;23;20091;-87
2022/07/24 05:12:42;;;;;;;11.45;10.35;;;15.20;99.90;;;;;;6187415;23;20091;-87
2022/07/24 05:15:08;;;;;;;11.77;9.88;;;15.40;99.90;;;;;;6187441;23;20396;-89
2022/07/24 05:17:35;;;;;;;11.15;9.93;;;15.60;99.90;;;;;;6186852;23;20012;-87
2022/07/24 05:20:02;;;;;;;10.98;9.05;;;15.90;99.90;;;;;;6186790;23;20023;-88
2022/07/24 05:22:28;;;;;;;11.07;9.98;;;16.00;99.90;;;;;;6186674;23;20453;-87
2022/07/24 05:24:54;;;;;;;10.18;9.18;;;16.20;99.90;;;;;;6187752;23;20016;-87
2022/07/24 05:27:19;;;;;;;10.82;8.68;;;16.40;99.90;;;;;;6186158;23;20012;-87
2022/07/24 05:29:46;;;;;;;10.77;9.68;;;16.50;99.90;;;;;;6187307;23;20016;-87
2022/07/24 05:32:12;;;;;;;10.73;9.63;;;16.50;99.90;;;;;;6187624;23;20016;-87
2022/07/24 05:34:38;;;;;;;10.77;8.85;;;16.70;99.90;;;;;;6185986;23;20514;-88
2022/07/24 05:37:04;;;;;;;10.38;9.38;;;16.70;99.90;;;;;;6186910;23;20020;-88
2022/07/24 05:39:29;;;;;;;10.70;9.30;;;16.90;99.90;;;;;;6187637;23;20009;-88
2022/07/24 05:41:55;;;;;;;9.55;8.18;;;17.00;99.90;;;;;;6187282;23;20099;-87
2022/07/24 05:44:21;;;;;;;9.88;8.85;;;17.20;99.90;;;;;;6186771;23;20105;-87
2022/07/24 05:46:47;;;;;;;9.75;8.75;;;17.30;99.90;;;;;;6187482;23;20060;-87
2022/07/24 05:49:12;;;;;;;10.75;9.65;;;17.50;99.90;;;;;;6185543;23;20012;-87
2022/07/24 05:51:38;;;;;;;9.45;8.35;;;17.60;99.90;;;;;;6186970;23;20009;-88
2022/07/24 05:54:04;;;;;;;9.45;8.45;;;17.70;99.90;;;;;;6187763;23;20463;-87
2022/07/24 05:56:30;;;;;;;9.80;8.80;;;17.80;99.90;;;;;;6186743;23;20011;-87
2022/07/24 05:58:55;;;;;;;10.90;9.65;;;17.90;99.90;;;;;;6187223;23;20008;-88
2022/07/24 06:01:21;;;;;;;11.02;9.60;;;17.80;99.90;;;;;;6186567;23;20508;-88
2022/07/24 06:03:46;;;;;;;11.75;10.07;;;17.80;99.90;;;;;;6187241;23;20456;-88
2022/07/24 06:06:12;;;;;;;10.35;9.13;;;17.80;99.90;;;;;;6187580;23;20437;-89
2022/07/24 06:08:38;;;;;;;10.95;9.32;;;17.70;99.90;;;;;;6186870;23;20017;-87
2022/07/24 06:11:04;;;;;;;13.95;10.82;;;17.70;99.90;;;;;;6186894;23;20012;-87
2022/07/24 06:13:29;;;;;;;12.05;10.65;;;17.80;99.90;;;;;;6186427;23;20013;-88
2022/07/24 06:15:55;;;;;;;12.23;10.77;;;17.80;99.90;;;;;;6186859;23;20024;-87
2022/07/24 06:18:21;;;;;;;11.25;9.98;;;17.70;99.90;;;;;;6187035;23;20511;-87
2022/07/24 06:20:47;;;;;;;11.18;10.07;;;17.80;99.90;;;;;;6185973;23;20345;-89
2022/07/24 06:23:13;;;;;;;12.63;11.27;;;17.80;99.90;;;;;;6184316;23;20015;-88
2022/07/24 06:25:38;;;;;;;12.80;11.50;;;17.80;99.90;;;;;;6183247;23;20095;-88
2022/07/24 06:28:04;;;;;;;15.60;11.40;;;17.90;99.90;;;;;;6183782;23;20403;-86
2022/07/24 06:30:30;;;;;;;12.60;11.32;;;18.00;99.90;;;;;;6186614;23;20035;-86
2022/07/24 06:32:57;;;;;;;13.23;11.82;;;18.00;99.90;;;;;;6186344;23;20019;-86
2022/07/24 06:35:23;;;;;;;13.60;11.45;;;18.00;99.90;;;;;;6187110;23;20017;-86
2022/07/24 06:37:49;;;;;;;13.23;11.82;;;18.10;99.90;;;;;;6187179;23;20012;-86
2022/07/24 06:40:16;;;;;;;14.48;12.50;;;18.20;99.90;;;;;;6189253;23;20062;-86
2022/07/24 06:42:46;;;;;;;13.77;12.23;;;18.30;99.90;;;;;;6188877;23;20456;-86
2022/07/24 06:45:12;;;;;;;14.50;12.93;;;18.30;99.90;;;;;;6189225;23;20024;-86
2022/07/24 06:47:38;;;;;;;17.90;13.68;;;18.30;99.90;;;;;;6188453;23;20008;-87
2022/07/24 06:50:04;;;;;;;14.90;12.77;;;18.40;99.90;;;;;;6188547;23;20015;-86
2022/07/24 06:52:30;;;;;;;15.32;13.40;;;18.50;99.90;;;;;;6188139;23;20066;-85
2022/07/24 06:54:57;;;;;;;15.13;13.30;;;18.60;99.90;;;;;;6188996;23;20013;-85
2022/07/24 06:57:25;;;;;;;15.63;13.45;;;18.60;99.90;;;;;;6187901;23;20015;-85
2022/07/24 06:59:54;;;;;;;16.63;14.55;;;18.60;99.90;;;;;;6189047;23;20091;-85
2022/07/24 07:02:26;;;;;;;16.35;13.02;;;18.70;99.90;;;;;;6188130;23;20013;-85
2022/07/24 07:04:52;;;;;;;15.60;12.00;;;18.70;99.90;;;;;;6163879;23;20013;-85
2022/07/24 07:07:17;;;;;;;14.32;12.30;;;18.80;99.90;;;;;;6188342;23;20009;-85
2022/07/24 07:09:46;;;;;;;13.57;11.68;;;18.80;99.90;;;;;;6188896;23;20023;-85
2022/07/24 07:12:11;;;;;;;13.32;11.80;;;19.00;99.90;;;;;;6187964;23;20023;-85
2022/07/24 07:14:37;;;;;;;13.48;11.70;;;19.00;99.90;;;;;;6187930;23;20016;-85
2022/07/24 07:17:03;;;;;;;13.30;11.45;;;19.00;99.90;;;;;;6186637;23;20012;-85
2022/07/24 07:19:29;;;;;;;11.48;10.25;;;19.10;99.90;;;;;;6187941;23;20008;-87
2022/07/24 07:21:54;;;;;;;12.13;9.45;;;19.20;99.90;;;;;;6188960;23;20005;-85
2022/07/24 07:24:20;;;;;;;11.55;9.88;;;19.20;99.90;;;;;;6189138;23;20082;-86
2022/07/24 07:26:46;;;;;;;10.80;9.63;;;19.30;99.90;;;;;;6187708;23;20043;-86
2022/07/24 07:29:11;;;;;;;9.65;8.55;;;19.40;99.90;;;;;;6188544;23;20044;-84
2022/07/24 07:31:37;;;;;;;10.15;8.45;;;19.50;99.90;;;;;;6188986;23;20032;-86
2022/07/24 07:34:03;;;;;;;9.73;8.40;;;19.60;99.90;;;;;;6188818;23;20029;-87
2022/07/24 07:36:28;;;;;;;11.70;8.55;;;19.70;99.90;;;;;;6188220;23;20020;-84
2022/07/24 07:38:54;;;;;;;9.43;8.20;;;19.80;99.90;;;;;;6188509;23;20019;-87
2022/07/24 07:41:20;;;;;;;8.70;7.55;;;19.90;99.90;;;;;;6188988;23;20091;-86
2022/07/24 07:43:49;;;;;;;9.00;7.38;;;20.00;99.90;;;;;;6188680;23;20048;-86
2022/07/24 07:46:15;;;;;;;8.30;7.30;;;20.00;99.90;;;;;;6189013;23;20013;-87
2022/07/24 07:48:42;;;;;;;7.90;7.10;;;20.10;99.90;;;;;;6185521;23;20017;-87
2022/07/24 07:51:08;;;;;;;8.90;7.03;;;20.20;99.90;;;;;;6188474;23;20341;-84
2022/07/24 07:53:34;;;;;;;6.82;5.90;;;20.30;99.90;;;;;;6188067;23;20024;-87
2022/07/24 07:56:01;;;;;;;8.25;6.28;;;20.40;99.90;;;;;;6188436;23;20338;-87
2022/07/24 07:58:27;;;;;;;6.35;5.20;;;20.60;99.90;;;;;;6187714;23;20013;-87
2022/07/24 08:00:54;;;;;;;5.50;4.80;;;20.90;99.90;;;;;;6188259;23;20141;-86
2022/07/24 08:03:19;;;;;;;4.10;3.70;;;21.20;99.90;;;;;;6186804;23;20005;-86
2022/07/24 08:05:45;;;;;;;4.13;3.30;;;21.50;99.90;;;;;;6188092;23;20039;-85
2022/07/24 08:08:11;;;;;;;3.38;2.95;;;22.00;99.90;;;;;;6187474;23;20014;-86
2022/07/24 08:10:37;;;;;;;3.33;2.90;;;22.80;99.90;;;;;;6188216;23;20009;-86
2022/07/24 08:13:02;;;;;;;4.43;3.25;;;23.50;99.90;;;;;;6187521;23;20079;-85
2022/07/24 08:15:28;;;;;;;5.85;2.85;;;24.00;99.90;;;;;;6187896;23;20020;-85
2022/07/24 08:17:57;;;;;;;3.80;2.80;;;24.10;99.90;;;;;;6188589;23;20344;-86
2022/07/24 08:20:24;;;;;;;2.95;2.65;;;24.60;99.90;;;;;;6189127;23;20132;-85
2022/07/24 08:22:50;;;;;;;2.90;2.60;;;25.30;99.90;;;;;;6188046;23;20015;-84
2022/07/24 08:25:16;;;;;;;2.88;2.60;;;26.00;99.90;;;;;;6187295;23;20017;-85
2022/07/24 08:27:42;;;;;;;2.95;2.40;;;26.70;99.90;;;;;;6187252;23;20012;-86
2022/07/24 08:30:09;;;;;;;3.53;2.47;;;27.40;99.90;;;;;;6187297;23;20021;-85
2022/07/24 08:32:35;;;;;;;2.75;2.47;;;27.80;99.90;;;;;;6188028;23;20020;-87
2022/07/24 08:35:01;;;;;;;3.15;2.33;;;28.00;99.90;;;;;;6187653;23;20012;-85
2022/07/24 08:37:27;;;;;;;3.80;2.78;;;28.40;99.90;;;;;;6187494;23;20016;-86
2022/07/24 08:39:54;;;;;;;3.47;2.20;;;28.60;99.90;;;;;;6187070;23;20013;-86
2022/07/24 08:42:20;;;;;;;3.75;2.35;;;28.60;99.90;;;;;;6187925;23;20449;-84
2022/07/24 08:44:46;;;;;;;2.25;2.00;;;28.40;98.90;;;;;;6186745;23;20357;-85
2022/07/24 08:47:15;;;;;;;2.58;2.22;;;28.10;98.60;;;;;;6187742;23;20016;-85
2022/07/24 08:49:41;;;;;;;2.70;2.30;;;27.60;95.80;;;;;;6187611;23;20075;-85
2022/07/24 08:52:08;;;;;;;4.22;2.20;;;27.10;96.40;;;;;;6187982;23;20066;-86
2022/07/24 08:54:35;;;;;;;2.60;1.90;;;26.60;98.20;;;;;;6187723;23;20444;-86
2022/07/24 08:57:02;;;;;;;3.35;2.13;;;26.50;99.60;;;;;;6187880;23;20052;-86
2022/07/24 08:59:27;;;;;;;2.22;2.03;;;26.60;97.20;;;;;;6187543;23;20023;-87
2022/07/24 09:01:53;;;;;;;3.35;1.83;;;26.70;96.00;;;;;;6186879;23;20012;-88
2022/07/24 09:04:43;;;;;;;2.03;1.83;;;26.90;97.80;;;;;;6188110;23;20017;-88
2022/07/24 09:07:17;;;;;;;1.88;1.73;;;27.40;95.50;;;;;;6187685;23;20019;-88
2022/07/24 09:09:44;;;;;;;1.83;1.40;;;27.90;95.10;;;;;;6187798;23;20015;-87
2022/07/24 09:12:17;;;;;;;2.45;1.52;;;28.20;93.80;;;;;;6187915;23;20530;-86
2022/07/24 09:14:47;;;;;;;2.58;1.50;;;28.40;90.40;;;;;;6187812;23;20020;-87
2022/07/24 09:17:19;;;;;;;2.10;1.60;;;28.60;90.50;;;;;;6187712;23;20035;-86
2022/07/24 09:20:00;;;;;;;1.83;1.60;;;28.90;86.30;;;;;;6187645;23;20016;-87
2022/07/24 09:22:34;;;;;;;2.17;1.60;;;29.20;90.10;;;;;;6187889;23;20486;-88
2022/07/24 09:25:05;;;;;;;1.90;1.80;;;29.50;77.80;;;;;;6187671;23;20013;-87
2022/07/24 09:27:31;;;;;;;1.70;1.50;;;29.60;83.50;;;;;;6187775;23;20430;-86
2022/07/24 09:29:57;;;;;;;2.28;1.50;;;29.30;84.00;;;;;;6187524;23;20087;-87
2022/07/24 09:32:24;;;;;;;1.60;1.50;;;29.00;84.70;;;;;;6187383;23;20017;-87
2022/07/24 09:34:52;;;;;;;1.60;1.50;;;29.10;86.30;;;;;;6187789;23;20016;-87
2022/07/24 09:47:40;;;;;;;1.83;1.23;;;28.40;81.80;;;;;;6256861;22;20077;-86
2022/07/24 09:50:14;;;;;;;2.28;1.70;;;28.60;81.90;;;;;;6222126;22;20008;-85
2022/07/24 09:52:42;;;;;;;2.15;1.60;;;28.90;78.80;;;;;;6221698;22;20015;-86
2022/07/24 09:55:23;;;;;;;3.33;1.85;;;29.10;82.20;;;;;;6222702;22;20011;-85
2022/07/24 09:57:49;;;;;;;1.90;1.67;;;29.40;78.90;;;;;;6222481;22;20439;-86
2022/07/24 10:00:15;;;;;;;2.28;1.67;;;29.60;80.40;;;;;;6222626;22;20061;-86
2022/07/24 10:02:44;;;;;;;2.47;1.77;;;29.80;81.10;;;;;;6247371;22;20118;-86
2022/07/24 10:05:11;;;;;;;2.55;1.70;;;30.00;81.40;;;;;;6222510;22;20486;-86
2022/07/24 10:07:38;;;;;;;2.42;1.90;;;30.20;80.80;;;;;;6221788;22;20011;-86
2022/07/24 10:10:04;;;;;;;3.10;1.85;;;30.30;82.10;;;;;;6247995;22;20012;-85
2022/07/24 10:12:31;;;;;;;2.40;1.85;;;30.50;79.40;;;;;;6222717;22;20015;-84
2022/07/24 10:14:59;;;;;;;2.20;1.52;;;30.50;78.50;;;;;;6250055;22;20011;-86
2022/07/24 10:17:52;;;;;;;2.00;1.52;;;30.60;78.50;;;;;;6249132;22;20019;-85
2022/07/24 10:20:38;;;;;;;2.30;1.98;;;30.60;76.60;;;;;;6224639;22;20090;-87
2022/07/24 10:23:05;;;;;;;1.95;1.85;;;30.50;70.50;;;;;;6200548;22;20061;-88
2022/07/24 10:25:54;;;;;;;2.40;1.50;;;30.50;77.10;;;;;;6224678;22;20012;-86
2022/07/24 10:28:38;;;;;;;1.80;1.60;;;30.50;75.20;;;;;;6224242;22;20007;-85
2022/07/24 10:31:09;;;;;;;2.55;1.75;;;30.50;74.70;;;;;;6250025;22;20004;-86
2022/07/24 10:33:37;;;;;;;1.92;1.65;;;30.50;74.70;;;;;;6223656;22;20019;-88
2022/07/24 10:36:12;;;;;;;3.80;1.75;;;30.50;73.90;;;;;;6224358;22;20011;-90
2022/07/24 10:38:41;;;;;;;3.05;1.70;;;30.40;73.50;;;;;;6224225;22;20007;-87
2022/07/24 10:41:14;;;;;;;2.47;1.77;;;30.50;74.20;;;;;;6223884;22;20018;-86
2022/07/24 10:43:40;;;;;;;1.80;1.70;;;30.50;73.50;;;;;;6249728;22;20023;-86
2022/07/24 10:46:06;;;;;;;2.20;1.63;;;30.60;72.40;;;;;;6224113;22;20012;-88
2022/07/24 10:48:36;;;;;;;4.30;1.80;;;30.60;72.50;;;;;;6224303;22;20057;-85
2022/07/24 10:51:08;;;;;;;2.40;1.65;;;30.60;70.60;;;;;;6224031;22;20033;-85
2022/07/24 10:53:36;;;;;;;2.67;1.63;;;30.60;69.60;;;;;;6223794;22;20043;-85
2022/07/24 10:56:26;;;;;;;2.17;1.60;;;30.70;70.20;;;;;;6249634;22;20394;-84
2022/07/24 10:58:55;;;;;;;3.65;1.90;;;30.80;67.70;;;;;;6223956;22;20440;-86
2022/07/24 11:01:29;;;;;;;1.65;1.42;;;30.90;70.50;;;;;;6224402;22;20023;-85
2022/07/24 11:03:54;;;;;;;1.88;1.73;;;31.00;70.00;;;;;;6224205;22;20012;-86
2022/07/24 11:06:43;;;;;;;1.90;1.63;;;30.90;70.90;;;;;;6223160;22;20008;-88
2022/07/24 11:09:10;;;;;;;2.58;1.80;;;31.00;68.10;;;;;;6223697;22;20011;-86
2022/07/24 11:11:52;;;;;;;2.40;1.42;;;31.00;71.20;;;;;;6224400;22;20049;-85
2022/07/24 11:14:36;;;;;;;2.05;1.70;;;31.10;70.00;;;;;;6224191;22;20444;-86
2022/07/24 11:17:40;;;;;;;2.45;1.85;;;31.10;70.80;;;;;;6249161;22;20090;-85
2022/07/24 11:20:12;;;;;;;1.73;1.63;;;31.20;66.70;;;;;;6223485;22;20081;-88
2022/07/24 11:22:43;;;;;;;2.78;1.70;;;31.20;68.70;;;;;;6223922;22;20012;-86
2022/07/24 11:25:12;;;;;;;2.42;1.98;;;31.20;69.80;;;;;;6223427;22;20404;-86
2022/07/24 11:27:48;;;;;;;2.03;1.70;;;31.20;69.20;;;;;;6221580;22;20030;-85
2022/07/24 11:30:15;;;;;;;2.13;1.92;;;31.20;68.10;;;;;;6223380;22;20501;-84
2022/07/24 11:32:42;;;;;;;2.30;1.90;;;31.30;69.90;;;;;;6249321;22;20007;-86
2022/07/24 11:35:08;;;;;;;2.45;1.52;;;31.40;69.10;;;;;;6249128;22;20015;-85
2022/07/24 11:37:39;;;;;;;2.33;2.00;;;31.40;67.60;;;;;;6222351;22;20022;-86
2022/07/24 11:40:07;;;;;;;2.50;1.92;;;31.30;67.90;;;;;;6221822;22;20120;-86
2022/07/24 11:42:33;;;;;;;3.25;1.80;;;31.30;67.80;;;;;;6223570;22;20008;-86
2022/07/24 11:45:00;;;;;;;2.53;1.77;;;31.30;68.40;;;;;;6223920;22;20004;-86
2022/07/24 11:47:27;;;;;;;2.55;1.80;;;31.50;68.20;;;;;;6221219;22;20355;-87
2022/07/24 11:50:00;;;;;;;2.47;1.70;;;31.60;68.20;;;;;;6248654;22;20087;-86
2022/07/24 11:52:37;;;;;;;1.95;1.48;;;31.60;67.20;;;;;;6223438;22;20372;-86
2022/07/24 11:55:12;;;;;;;2.65;1.80;;;31.70;66.60;;;;;;6223111;22;20527;-86
2022/07/24 11:57:40;;;;;;;2.05;1.60;;;31.80;65.80;;;;;;6222821;22;20320;-85
2022/07/24 12:00:12;;;;;;;2.20;1.70;;;31.70;66.40;;;;;;6222486;22;20037;-86
2022/07/24 12:02:50;;;;;;;3.17;1.60;;;31.60;66.80;;;;;;6223479;22;20016;-85
2022/07/24 12:05:29;;;;;;;2.20;1.88;;;31.60;65.90;;;;;;6220506;22;20086;-87
2022/07/24 12:07:56;;;;;;;2.38;1.60;;;31.70;64.00;;;;;;6221225;22;20004;-85
2022/07/24 12:10:22;;;;;;;2.88;1.90;;;31.70;66.20;;;;;;6248859;22;20022;-85
2022/07/24 12:12:50;;;;;;;3.20;1.85;;;31.70;65.00;;;;;;6223567;22;20023;-84
2022/07/24 12:15:16;;;;;;;4.55;1.90;;;31.70;65.70;;;;;;6222855;22;20068;-87
2022/07/24 12:18:07;;;;;;;2.38;1.80;;;31.70;65.40;;;;;;6247916;22;20023;-85
2022/07/24 12:20:42;;;;;;;5.85;1.92;;;31.60;63.30;;;;;;6222943;22;20056;-86
2022/07/24 12:23:11;;;;;;;3.28;1.60;;;31.60;64.90;;;;;;6222115;22;20012;-85
2022/07/24 12:25:37;;;;;;;3.33;1.83;;;31.60;65.90;;;;;;6248601;22;20011;-85
2022/07/24 12:28:04;;;;;;;3.00;1.80;;;31.60;65.60;;;;;;6222483;22;20008;-84
2022/07/24 12:30:32;;;;;;;2.50;1.80;;;31.70;65.60;;;;;;6248668;22;20039;-85
2022/07/24 12:33:01;;;;;;;2.40;1.70;;;31.80;65.90;;;;;;6219986;22;20074;-85
2022/07/24 12:35:29;;;;;;;2.25;1.85;;;31.80;65.40;;;;;;6222807;22;20011;-85
2022/07/24 12:37:55;;;;;;;2.92;2.05;;;31.90;66.00;;;;;;6222870;22;20016;-85
2022/07/24 12:40:33;;;;;;;4.60;1.80;;;31.90;65.30;;;;;;6222638;22;20470;-85
2022/07/24 12:43:08;;;;;;;2.10;1.85;;;31.90;64.50;;;;;;6247331;22;20459;-85
2022/07/24 12:45:33;;;;;;;4.00;1.92;;;31.90;64.60;;;;;;6223283;22;20379;-85
2022/07/24 12:48:18;;;;;;;2.10;1.83;;;32.00;64.30;;;;;;6222092;22;20167;-85
2022/07/24 12:51:05;;;;;;;2.42;1.83;;;32.00;62.00;;;;;;6221114;22;20014;-86
2022/07/24 12:53:32;;;;;;;1.92;1.75;;;32.10;63.90;;;;;;6222640;22;20020;-86
2022/07/24 12:56:33;;;;;;;4.13;2.20;;;32.30;65.40;;;;;;6246918;22;20347;-85
2022/07/24 12:59:04;;;;;;;3.38;1.77;;;32.40;62.80;;;;;;6144914;22;20447;-86
2022/07/24 13:02:03;;;;;;;4.95;2.05;;;32.50;65.60;;;;;;6222563;22;20007;-86
2022/07/24 13:04:29;;;;;;;3.20;2.10;;;32.70;60.40;;;;;;6194625;22;20012;-85